createdAt,value
2022-07-25T00:01:31.924Z,69.86
2022-07-25T00:03:58.649Z,70.23
2022-07-25T00:06:25.264Z,69.75
2022-07-25T00:08:51.868Z,69.91
2022-07-25T00:11:18.442Z,70.14
2022-07-25T00:13:45.063Z,69.11
2022-07-25T00:16:12.221Z,70.63
2022-07-25T00:18:38.933Z,69.27
2022-07-25T00:21:05.655Z,70.74
2022-07-25T00:23:35.169Z,70.52
2022-07-25T00:26:04.417Z,71.38
2022-07-25T00:28:30.936Z,72.18
2022-07-25T00:30:57.625Z,72.10
2022-07-25T00:33:24.320Z,72.21
2022-07-25T00:35:50.990Z,71.79
2022-07-25T00:38:17.499Z,71.38
2022-07-25T00:40:44.462Z,71.11
2022-07-25T00:43:11.122Z,72.06
2022-07-25T00:45:37.757Z,72.22
2022-07-25T00:48:04.874Z,71.96
2022-07-25T00:50:31.440Z,71.86
2022-07-25T00:52:58.256Z,71.96
2022-07-25T00:55:25.525Z,71.83
2022-07-25T00:57:53.199Z,72.27
2022-07-25T01:00:20.069Z,72.24
2022-07-25T01:02:47.238Z,71.89
2022-07-25T01:05:14.171Z,71.48
2022-07-25T01:07:41.089Z,71.45
2022-07-25T01:10:08.617Z,72.25
2022-07-25T01:12:47.383Z,71.74
2022-07-25T01:15:13.891Z,72.20
2022-07-25T01:17:40.456Z,71.44
2022-07-25T01:20:18.981Z,71.08
2022-07-25T01:22:46.014Z,72.76
2022-07-25T01:25:13.536Z,72.10
2022-07-25T01:27:41.211Z,72.69
2022-07-25T01:30:10.170Z,72.80
2022-07-25T01:32:37.470Z,72.89
2022-07-25T01:35:06.029Z,73.42
2022-07-25T01:37:32.627Z,72.69
2022-07-25T01:39:59.237Z,73.02
2022-07-25T01:42:25.870Z,72.00
2022-07-25T01:44:52.496Z,73.84
2022-07-25T01:47:19.012Z,73.48
2022-07-25T01:49:45.605Z,73.68
2022-07-25T01:52:13.158Z,73.44
2022-07-25T01:54:40.216Z,74.00
2022-07-25T01:57:07.609Z,74.26
2022-07-25T01:59:39.014Z,74.80
2022-07-25T02:02:07.303Z,74.96
2022-07-25T02:04:34.508Z,75.36
2022-07-25T02:07:01.488Z,76.11
2022-07-25T02:09:29.072Z,76.28
2022-07-25T02:11:55.864Z,76.61
2022-07-25T02:14:22.983Z,76.54
2022-07-25T02:16:50.089Z,76.63
2022-07-25T02:19:16.771Z,75.33
2022-07-25T02:21:43.343Z,76.46
2022-07-25T02:24:10.235Z,76.37
2022-07-25T02:26:36.924Z,76.15
2022-07-25T02:29:03.663Z,75.45
2022-07-25T02:31:30.161Z,75.45
2022-07-25T02:33:56.730Z,76.14
2022-07-25T02:36:23.257Z,74.99
2022-07-25T02:38:49.820Z,75.31
2022-07-25T02:41:16.392Z,75.44
2022-07-25T02:43:42.957Z,75.71
2022-07-25T02:46:09.555Z,76.42
2022-07-25T02:48:36.389Z,76.22
2022-07-25T02:51:03.092Z,76.51
2022-07-25T02:53:54.822Z,76.55
2022-07-25T02:56:16.256Z,76.71
2022-07-25T02:58:43.031Z,77.29
2022-07-25T03:01:09.684Z,76.46
2022-07-25T03:03:36.502Z,75.98
2022-07-25T03:06:03.239Z,75.39
2022-07-25T03:08:29.917Z,76.17
2022-07-25T03:10:56.520Z,75.59
2022-07-25T03:13:23.047Z,74.52
2022-07-25T03:15:49.555Z,74.02
2022-07-25T03:18:17.253Z,75.37
2022-07-25T03:20:43.936Z,75.57
2022-07-25T03:23:10.600Z,75.75
2022-07-25T03:25:37.117Z,75.42
2022-07-25T03:28:03.723Z,74.41
2022-07-25T03:30:30.304Z,74.83
2022-07-25T03:32:56.907Z,75.87
2022-07-25T03:35:23.509Z,75.53
2022-07-25T03:37:50.060Z,76.14
2022-07-25T03:40:17.631Z,75.98
2022-07-25T03:42:44.373Z,75.59
2022-07-25T03:45:11.172Z,75.57
2022-07-25T03:47:37.741Z,75.97
2022-07-25T03:50:05.002Z,75.79
2022-07-25T03:52:31.545Z,76.15
2022-07-25T03:54:58.083Z,76.45
2022-07-25T03:57:24.597Z,75.18
2022-07-25T03:59:51.246Z,75.73
2022-07-25T04:02:17.858Z,76.37
2022-07-25T04:04:44.462Z,75.63
2022-07-25T04:07:11.002Z,75.81
2022-07-25T04:09:37.550Z,75.89
2022-07-25T04:12:04.432Z,76.12
2022-07-25T04:14:30.993Z,75.94
2022-07-25T04:16:57.606Z,74.14
2022-07-25T04:19:24.155Z,74.40
2022-07-25T04:21:52.844Z,74.68
2022-07-25T04:24:19.339Z,75.51
2022-07-25T04:26:45.847Z,75.02
2022-07-25T04:29:12.383Z,74.83
2022-07-25T04:31:38.995Z,75.37
2022-07-25T04:34:05.868Z,75.30
2022-07-25T04:36:32.733Z,74.32
2022-07-25T04:38:59.304Z,74.86
2022-07-25T04:41:25.822Z,74.15
2022-07-25T04:43:52.446Z,74.33
2022-07-25T04:46:20.489Z,73.91
2022-07-25T04:48:47.434Z,73.30
2022-07-25T04:51:14.896Z,73.23
2022-07-25T04:53:41.494Z,72.68
2022-07-25T04:56:08.260Z,71.59
2022-07-25T04:58:34.884Z,70.55
2022-07-25T05:01:01.597Z,72.65
2022-07-25T05:03:30.956Z,68.51
2022-07-25T05:05:57.461Z,70.81
2022-07-25T05:08:23.995Z,71.71
2022-07-25T05:10:50.513Z,67.77
2022-07-25T05:13:20.508Z,67.53
2022-07-25T05:15:47.054Z,65.77
2022-07-25T05:18:13.600Z,61.24
2022-07-25T05:20:40.181Z,61.51
2022-07-25T05:23:06.696Z,60.71
2022-07-25T05:25:33.489Z,62.48
2022-07-25T05:28:00.120Z,60.33
2022-07-25T05:30:26.631Z,59.64
2022-07-25T05:32:53.958Z,60.13
2022-07-25T05:35:20.499Z,61.79
2022-07-25T05:37:47.186Z,61.83
2022-07-25T05:40:13.816Z,61.20
2022-07-25T05:42:40.399Z,61.56
2022-07-25T05:45:07.513Z,62.00
2022-07-25T05:47:34.163Z,61.10
2022-07-25T05:50:00.845Z,61.87
2022-07-25T05:52:27.358Z,62.83
2022-07-25T05:54:54.045Z,61.49
2022-07-25T05:57:22.313Z,61.21
2022-07-25T05:59:48.845Z,61.15
2022-07-25T06:02:15.469Z,62.26
2022-07-25T06:04:42.059Z,62.10
2022-07-25T06:07:08.620Z,62.86
2022-07-25T06:09:37.401Z,61.73
2022-07-25T06:12:04.293Z,63.55
2022-07-25T06:14:30.836Z,58.46
2022-07-25T06:16:57.474Z,59.77
2022-07-25T06:19:24.335Z,58.67
2022-07-25T06:21:50.890Z,61.04
2022-07-25T06:24:17.455Z,60.04
2022-07-25T06:26:44.108Z,57.32
2022-07-25T06:29:10.682Z,59.16
2022-07-25T06:31:37.263Z,56.76
2022-07-25T06:34:04.203Z,55.85
2022-07-25T06:36:32.243Z,57.17
2022-07-25T06:38:59.714Z,55.30
2022-07-25T06:41:29.417Z,54.03
2022-07-25T06:43:55.961Z,53.03
2022-07-25T06:46:22.553Z,53.79
2022-07-25T06:48:49.182Z,53.93
2022-07-25T06:51:18.630Z,53.43
2022-07-25T06:53:45.235Z,55.08
2022-07-25T06:56:17.466Z,55.82
2022-07-25T06:58:44.490Z,55.67
2022-07-25T07:01:11.113Z,55.41
2022-07-25T07:03:40.281Z,54.15
2022-07-25T07:06:09.304Z,53.72
2022-07-25T07:08:36.192Z,53.64
2022-07-25T07:11:03.393Z,53.63
2022-07-25T07:13:29.955Z,53.43
2022-07-25T07:15:56.580Z,53.08
2022-07-25T07:18:23.723Z,52.16
2022-07-25T07:20:50.300Z,50.71
2022-07-25T07:23:17.999Z,51.44
2022-07-25T07:25:47.084Z,50.10
2022-07-25T07:28:14.322Z,49.42
2022-07-25T07:33:27.501Z,49.94
2022-07-25T07:35:56.854Z,49.53
2022-07-25T14:21:03.828Z,44.56
2022-07-25T14:23:47.372Z,45.89
2022-07-25T14:26:14.637Z,44.69
2022-07-25T14:28:41.262Z,45.03
2022-07-25T14:31:07.869Z,43.80
2022-07-25T14:33:40.001Z,43.77
2022-07-25T14:36:08.173Z,44.25
2022-07-25T14:38:34.756Z,44.31
2022-07-25T14:41:01.342Z,41.98
2022-07-25T14:43:28.109Z,42.12
2022-07-25T14:45:54.737Z,42.71
2022-07-25T14:48:21.426Z,42.81
2022-07-25T14:50:51.031Z,43.75
2022-07-25T14:53:18.505Z,44.96
2022-07-25T14:55:48.045Z,45.47
2022-07-25T14:58:15.689Z,45.20
2022-07-25T15:00:43.556Z,46.68
2022-07-25T15:03:10.177Z,46.24
2022-07-25T15:05:38.432Z,46.90
2022-07-25T15:08:06.884Z,46.29
2022-07-25T15:10:33.599Z,46.86
2022-07-25T15:13:28.307Z,47.04
2022-07-25T15:15:47.228Z,48.21
2022-07-25T15:18:14.254Z,49.42
2022-07-25T15:20:41.165Z,48.97
2022-07-25T15:23:07.763Z,50.57
2022-07-25T15:26:00.574Z,50.33
2022-07-25T15:28:22.077Z,50.55
2022-07-25T15:30:48.869Z,49.75
2022-07-25T15:33:17.143Z,51.45
2022-07-25T15:35:47.751Z,51.21
2022-07-25T15:38:15.874Z,52.42
2022-07-25T15:40:43.919Z,51.54
2022-07-25T15:43:11.327Z,51.19
2022-07-25T15:45:39.942Z,51.78
2022-07-25T15:48:10.536Z,52.47
2022-07-25T15:50:44.550Z,53.17
2022-07-25T15:53:12.090Z,53.22
2022-07-25T15:55:40.236Z,52.74
2022-07-25T15:58:07.776Z,53.69
2022-07-25T16:00:34.469Z,53.55
2022-07-25T16:03:01.441Z,52.85
2022-07-25T16:05:28.103Z,53.47
2022-07-25T16:07:54.663Z,52.98
2022-07-25T16:10:21.283Z,52.30
2022-07-25T16:12:47.805Z,52.03
2022-07-25T16:15:14.636Z,52.15
2022-07-25T16:17:41.200Z,51.85
2022-07-25T16:20:11.821Z,50.57
2022-07-25T16:22:39.351Z,50.49
2022-07-25T16:25:06.383Z,50.55
2022-07-25T16:27:33.117Z,50.41
2022-07-25T16:30:00.976Z,49.63
2022-07-25T16:32:27.585Z,49.66
2022-07-25T16:34:54.161Z,50.16
2022-07-25T16:37:21.365Z,48.12
2022-07-25T16:39:47.955Z,48.49
2022-07-25T16:42:14.575Z,47.13
2022-07-25T16:44:41.282Z,47.18
2022-07-25T16:47:08.269Z,47.58
2022-07-25T16:49:34.938Z,48.25
2022-07-25T16:52:01.502Z,48.05
2022-07-25T16:54:28.388Z,48.27
2022-07-25T16:56:59.420Z,47.15
2022-07-25T16:59:26.686Z,47.85
2022-07-25T17:01:53.430Z,47.92
2022-07-25T17:04:20.225Z,48.60
2022-07-25T17:06:47.056Z,48.06
2022-07-25T17:09:13.657Z,47.74
2022-07-25T17:11:40.454Z,48.17
2022-07-25T17:14:07.072Z,48.19
2022-07-25T17:16:33.793Z,48.67
2022-07-25T17:19:02.057Z,48.33
2022-07-25T17:21:28.801Z,48.44
2022-07-25T17:23:56.503Z,48.62
2022-07-25T17:26:23.559Z,48.75
2022-07-25T17:28:50.278Z,47.96
2022-07-25T17:31:16.907Z,48.19
2022-07-25T17:33:43.564Z,48.93
2022-07-25T17:36:10.290Z,48.39
2022-07-25T17:38:37.637Z,48.99
2022-07-25T17:41:05.010Z,48.71
2022-07-25T17:43:31.885Z,48.87
2022-07-25T17:45:58.520Z,49.07
2022-07-25T17:48:25.153Z,48.92
2022-07-25T17:50:52.564Z,49.48
2022-07-25T17:53:19.222Z,49.37
2022-07-25T17:55:45.804Z,49.75
2022-07-25T17:58:12.452Z,49.43
2022-07-25T18:00:39.158Z,49.96
2022-07-25T18:03:06.258Z,49.76
2022-07-25T18:05:33.143Z,50.56
2022-07-25T18:07:59.935Z,49.58
2022-07-25T18:10:26.696Z,49.51
2022-07-25T18:12:53.305Z,49.44
2022-07-25T18:15:19.944Z,49.66
2022-07-25T18:17:48.080Z,49.95
2022-07-25T18:20:17.759Z,48.33
2022-07-25T18:22:45.420Z,49.04
2022-07-25T18:25:13.986Z,48.41
2022-07-25T18:27:42.411Z,49.00
2022-07-25T18:30:10.539Z,49.18
2022-07-25T18:32:37.943Z,49.06
2022-07-25T18:35:05.675Z,48.52
2022-07-25T18:37:32.323Z,48.66
2022-07-25T18:39:59.925Z,49.64
2022-07-25T18:42:29.914Z,49.30
2022-07-25T18:44:57.108Z,49.25
2022-07-25T18:47:26.416Z,49.45
2022-07-25T18:49:59.129Z,49.99
2022-07-25T18:52:25.731Z,50.39
2022-07-25T18:54:52.326Z,51.08
2022-07-25T18:57:19.310Z,50.81
2022-07-25T18:59:45.979Z,50.99
2022-07-25T19:02:12.637Z,51.65
2022-07-25T19:04:40.282Z,51.79
2022-07-25T19:07:09.289Z,49.33
2022-07-25T19:09:35.895Z,49.13
2022-07-25T19:12:02.543Z,48.44
2022-07-25T19:14:30.639Z,48.14
2022-07-25T19:16:58.815Z,47.80
2022-07-25T19:19:26.190Z,48.68
2022-07-25T19:21:53.366Z,48.44
2022-07-25T19:24:20.036Z,49.09
2022-07-25T19:26:48.088Z,48.51
2022-07-25T19:29:16.555Z,48.72
2022-07-25T19:31:43.896Z,48.68
2022-07-25T19:34:11.138Z,48.68
2022-07-25T19:36:38.384Z,48.75
2022-07-25T19:39:06.235Z,48.59
2022-07-25T19:41:33.371Z,48.24
2022-07-25T19:44:00.024Z,48.78
2022-07-25T19:46:31.059Z,48.60
2022-07-25T19:48:58.026Z,49.81
2022-07-25T19:51:24.619Z,49.91
2022-07-25T19:53:51.171Z,49.15
2022-07-25T19:56:17.749Z,48.87
2022-07-25T19:58:45.135Z,48.74
2022-07-25T20:01:12.672Z,48.83
2022-07-25T20:03:40.063Z,49.61
2022-07-25T20:06:08.560Z,49.55
2022-07-25T20:08:36.615Z,49.18
2022-07-25T20:11:03.477Z,52.13
2022-07-25T20:13:30.153Z,50.82
2022-07-25T20:15:57.326Z,49.29
2022-07-25T20:18:23.938Z,51.66
2022-07-25T20:20:50.660Z,49.43
2022-07-25T20:23:17.271Z,49.77
2022-07-25T20:25:44.128Z,51.40
2022-07-25T20:28:10.975Z,49.74
2022-07-25T20:30:37.782Z,52.00
2022-07-25T20:33:05.375Z,51.65
2022-07-25T20:35:38.133Z,51.10
2022-07-25T20:38:10.048Z,50.26
2022-07-25T20:40:41.105Z,50.27
2022-07-25T20:43:10.948Z,50.73
2022-07-25T20:45:37.772Z,50.83
2022-07-25T20:48:05.265Z,51.34
2022-07-25T20:50:32.220Z,50.68
2022-07-25T20:52:58.880Z,51.41
2022-07-25T20:55:28.405Z,51.30
2022-07-25T20:57:55.078Z,51.40
2022-07-25T21:00:22.873Z,50.91
2022-07-25T21:02:49.548Z,51.62
2022-07-25T21:05:16.463Z,51.03
2022-07-25T21:07:43.517Z,51.66
2022-07-25T21:10:11.174Z,51.62
2022-07-25T21:12:38.835Z,52.15
2022-07-25T21:15:07.052Z,52.21
2022-07-25T21:17:34.005Z,51.59
2022-07-25T21:20:00.597Z,51.84
2022-07-25T21:22:27.746Z,52.40
2022-07-25T21:24:54.329Z,52.60
2022-07-25T21:27:21.015Z,53.15
2022-07-25T21:29:47.666Z,52.45
2022-07-25T21:32:14.323Z,54.63
2022-07-25T21:34:41.718Z,54.25
2022-07-25T21:37:08.462Z,53.74
2022-07-25T21:39:35.548Z,53.25
2022-07-25T21:42:02.333Z,54.36
2022-07-25T21:44:31.178Z,53.85
2022-07-25T21:46:57.692Z,54.03
2022-07-25T21:49:42.967Z,54.26
2022-07-25T21:52:13.962Z,54.32
2022-07-25T21:54:42.052Z,55.31
2022-07-25T21:57:13.427Z,54.28
2022-07-25T21:59:44.485Z,54.24
2022-07-25T22:02:11.989Z,53.63
2022-07-25T22:04:39.224Z,53.93
2022-07-25T22:07:06.300Z,54.97
2022-07-25T22:09:32.881Z,54.56
2022-07-25T22:11:59.501Z,55.11
2022-07-25T22:14:26.365Z,54.49
2022-07-25T22:16:52.990Z,54.72
2022-07-25T22:19:22.370Z,54.46
2022-07-25T22:21:50.292Z,54.50
2022-07-25T22:24:17.063Z,55.37
2022-07-25T22:26:43.678Z,55.45
2022-07-25T22:29:10.970Z,54.43
2022-07-25T22:31:41.179Z,54.39
2022-07-25T22:34:07.838Z,54.62
2022-07-25T22:36:34.455Z,54.40
2022-07-25T22:39:01.083Z,55.47
2022-07-25T22:41:27.790Z,55.46
2022-07-25T22:43:57.869Z,54.72
2022-07-25T22:46:26.840Z,54.78
2022-07-25T22:48:53.569Z,55.90
2022-07-25T22:51:20.215Z,55.94
2022-07-25T22:53:46.767Z,55.92
2022-07-25T22:56:13.406Z,55.34
2022-07-25T22:58:40.035Z,56.61
2022-07-25T23:01:06.782Z,55.91
2022-07-25T23:03:33.682Z,56.13
2022-07-25T23:06:01.330Z,56.22
2022-07-25T23:08:28.087Z,56.11
2022-07-25T23:10:55.002Z,56.38
2022-07-25T23:13:21.672Z,56.72
2022-07-25T23:15:50.379Z,57.21
2022-07-25T23:18:18.821Z,57.65
2022-07-25T23:20:45.436Z,57.81
2022-07-25T23:23:12.178Z,57.57
2022-07-25T23:25:39.616Z,57.78
2022-07-25T23:28:06.264Z,58.52
2022-07-25T23:30:36.727Z,58.60
2022-07-25T23:33:07.146Z,58.78
2022-07-25T23:35:33.965Z,58.16
2022-07-25T23:38:01.146Z,59.21
2022-07-25T23:40:27.683Z,59.16
2022-07-25T23:42:54.531Z,59.20
2022-07-25T23:45:22.196Z,60.04
2022-07-25T23:47:51.515Z,59.45
2022-07-25T23:50:19.719Z,59.53
2022-07-25T23:52:46.331Z,59.88
2022-07-25T23:55:12.989Z,59.94
2022-07-25T23:57:39.580Z,60.66
